sensor_id;sensor_type;location;lat;lon;timestamp;temperature;humidity
25108;DHT22;13090;53.422;7.670;2022-07-23T00:00:08;19.60;66.70
25108;DHT22;13090;53.422;7.670;2022-07-23T00:05:10;19.50;66.60
25108;DHT22;13090;53.422;7.670;2022-07-23T00:10:14;19.50;66.60
25108;DHT22;13090;53.422;7.670;2022-07-23T00:15:17;19.40;66.90
25108;DHT22;13090;53.422;7.670;2022-07-23T00:20:20;19.40;67.00
25108;DHT22;13090;53.422;7.670;2022-07-23T00:25:24;19.40;67.00
25108;DHT22;13090;53.422;7.670;2022-07-23T00:30:32;19.40;67.20
25108;DHT22;13090;53.422;7.670;2022-07-23T00:35:37;19.30;67.10
25108;DHT22;13090;53.422;7.670;2022-07-23T00:40:41;19.30;67.30
25108;DHT22;13090;53.422;7.670;2022-07-23T00:45:44;19.20;67.40
25108;DHT22;13090;53.422;7.670;2022-07-23T00:50:47;19.20;67.50
25108;DHT22;13090;53.422;7.670;2022-07-23T00:55:51;19.20;67.70
25108;DHT22;13090;53.422;7.670;2022-07-23T01:00:54;19.20;68.00
25108;DHT22;13090;53.422;7.670;2022-07-23T01:05:57;19.20;67.90
25108;DHT22;13090;53.422;7.670;2022-07-23T01:11:02;19.10;68.10
25108;DHT22;13090;53.422;7.670;2022-07-23T01:16:05;19.10;68.30
25108;DHT22;13090;53.422;7.670;2022-07-23T01:21:12;19.10;68.30
25108;DHT22;13090;53.422;7.670;2022-07-23T01:26:16;19.10;68.20
25108;DHT22;13090;53.422;7.670;2022-07-23T01:31:18;19.10;68.00
25108;DHT22;13090;53.422;7.670;2022-07-23T01:36:21;19.10;68.30
25108;DHT22;13090;53.422;7.670;2022-07-23T01:41:25;19.10;68.40
25108;DHT22;13090;53.422;7.670;2022-07-23T01:46:28;19.10;69.00
25108;DHT22;13090;53.422;7.670;2022-07-23T01:51:31;19.10;68.30
25108;DHT22;13090;53.422;7.670;2022-07-23T01:56:35;19.00;68.40
25108;DHT22;13090;53.422;7.670;2022-07-23T02:01:37;18.90;69.00
25108;DHT22;13090;53.422;7.670;2022-07-23T02:06:39;18.80;69.00
25108;DHT22;13090;53.422;7.670;2022-07-23T02:11:43;18.60;69.50
25108;DHT22;13090;53.422;7.670;2022-07-23T02:16:46;18.60;70.30
25108;DHT22;13090;53.422;7.670;2022-07-23T02:21:49;18.50;70.50
25108;DHT22;13090;53.422;7.670;2022-07-23T02:26:53;18.50;70.80
25108;DHT22;13090;53.422;7.670;2022-07-23T02:31:56;18.50;71.10
25108;DHT22;13090;53.422;7.670;2022-07-23T02:36:58;18.50;70.90
25108;DHT22;13090;53.422;7.670;2022-07-23T02:42:02;18.50;70.90
25108;DHT22;13090;53.422;7.670;2022-07-23T02:47:05;18.50;71.10
25108;DHT22;13090;53.422;7.670;2022-07-23T02:52:07;18.50;70.80
25108;DHT22;13090;53.422;7.670;2022-07-23T02:57:11;18.50;70.60
25108;DHT22;13090;53.422;7.670;2022-07-23T03:02:13;18.40;70.20
25108;DHT22;13090;53.422;7.670;2022-07-23T03:07:16;18.30;70.10
25108;DHT22;13090;53.422;7.670;2022-07-23T03:12:20;18.20;70.30
25108;DHT22;13090;53.422;7.670;2022-07-23T03:17:22;18.10;71.00
25108;DHT22;13090;53.422;7.670;2022-07-23T03:22:24;18.00;71.30
25108;DHT22;13090;53.422;7.670;2022-07-23T03:27:30;18.00;71.70
25108;DHT22;13090;53.422;7.670;2022-07-23T03:32:32;18.10;72.10
25108;DHT22;13090;53.422;7.670;2022-07-23T03:37:35;18.10;71.90
25108;DHT22;13090;53.422;7.670;2022-07-23T03:42:38;18.10;71.80
25108;DHT22;13090;53.422;7.670;2022-07-23T03:47:41;18.20;71.90
25108;DHT22;13090;53.422;7.670;2022-07-23T03:52:43;18.20;71.80
25108;DHT22;13090;53.422;7.670;2022-07-23T03:57:47;18.20;71.80
25108;DHT22;13090;53.422;7.670;2022-07-23T04:02:49;18.20;72.10
25108;DHT22;13090;53.422;7.670;2022-07-23T04:07:52;18.20;72.00
25108;DHT22;13090;53.422;7.670;2022-07-23T04:12:56;18.20;72.20
25108;DHT22;13090;53.422;7.670;2022-07-23T04:17:58;18.20;72.50
25108;DHT22;13090;53.422;7.670;2022-07-23T04:23:00;18.20;72.50
25108;DHT22;13090;53.422;7.670;2022-07-23T04:28:04;18.20;72.60
25108;DHT22;13090;53.422;7.670;2022-07-23T04:33:07;18.20;72.70
25108;DHT22;13090;53.422;7.670;2022-07-23T04:38:09;18.30;72.60
25108;DHT22;13090;53.422;7.670;2022-07-23T04:43:13;18.30;72.60
25108;DHT22;13090;53.422;7.670;2022-07-23T04:48:15;18.40;72.80
25108;DHT22;13090;53.422;7.670;2022-07-23T04:53:18;18.40;72.60
25108;DHT22;13090;53.422;7.670;2022-07-23T04:58:22;18.40;72.50
25108;DHT22;13090;53.422;7.670;2022-07-23T05:03:25;18.40;72.70
25108;DHT22;13090;53.422;7.670;2022-07-23T05:08:27;18.50;72.90
25108;DHT22;13090;53.422;7.670;2022-07-23T05:13:31;18.50;73.00
25108;DHT22;13090;53.422;7.670;2022-07-23T05:18:33;18.60;73.20
25108;DHT22;13090;53.422;7.670;2022-07-23T05:23:35;18.70;73.20
25108;DHT22;13090;53.422;7.670;2022-07-23T05:28:39;18.80;73.10
25108;DHT22;13090;53.422;7.670;2022-07-23T05:33:47;18.90;73.10
25108;DHT22;13090;53.422;7.670;2022-07-23T05:38:50;19.00;73.10
25108;DHT22;13090;53.422;7.670;2022-07-23T05:43:53;19.10;73.20
25108;DHT22;13090;53.422;7.670;2022-07-23T05:48:56;19.20;73.40
25108;DHT22;13090;53.422;7.670;2022-07-23T05:54:00;19.40;73.40
25108;DHT22;13090;53.422;7.670;2022-07-23T05:59:04;19.60;73.30
25108;DHT22;13090;53.422;7.670;2022-07-23T06:04:07;19.80;73.00
25108;DHT22;13090;53.422;7.670;2022-07-23T06:09:09;19.90;72.60
25108;DHT22;13090;53.422;7.670;2022-07-23T06:14:13;20.00;72.30
25108;DHT22;13090;53.422;7.670;2022-07-23T06:19:16;20.10;72.00
25108;DHT22;13090;53.422;7.670;2022-07-23T06:24:18;20.10;71.70
25108;DHT22;13090;53.422;7.670;2022-07-23T06:29:22;20.10;71.90
25108;DHT22;13090;53.422;7.670;2022-07-23T06:34:24;20.20;72.20
25108;DHT22;13090;53.422;7.670;2022-07-23T06:39:27;20.30;72.20
25108;DHT22;13090;53.422;7.670;2022-07-23T06:44:31;20.40;71.90
25108;DHT22;13090;53.422;7.670;2022-07-23T06:49:33;20.50;71.80
25108;DHT22;13090;53.422;7.670;2022-07-23T06:54:35;20.60;71.40
25108;DHT22;13090;53.422;7.670;2022-07-23T06:59:39;20.80;71.10
25108;DHT22;13090;53.422;7.670;2022-07-23T07:04:42;20.80;70.90
25108;DHT22;13090;53.422;7.670;2022-07-23T07:09:44;20.90;70.70
25108;DHT22;13090;53.422;7.670;2022-07-23T07:14:51;21.00;70.60
25108;DHT22;13090;53.422;7.670;2022-07-23T07:19:53;21.10;70.50
25108;DHT22;13090;53.422;7.670;2022-07-23T07:24:55;21.30;70.20
25108;DHT22;13090;53.422;7.670;2022-07-23T07:29:59;21.50;70.00
25108;DHT22;13090;53.422;7.670;2022-07-23T07:35:02;21.70;69.50
25108;DHT22;13090;53.422;7.670;2022-07-23T07:40:05;21.90;69.10
25108;DHT22;13090;53.422;7.670;2022-07-23T07:45:10;22.10;68.70
25108;DHT22;13090;53.422;7.670;2022-07-23T07:50:13;22.20;68.20
25108;DHT22;13090;53.422;7.670;2022-07-23T07:55:15;22.30;67.60
25108;DHT22;13090;53.422;7.670;2022-07-23T08:00:20;22.40;67.10
25108;DHT22;13090;53.422;7.670;2022-07-23T08:05:25;22.40;65.80
25108;DHT22;13090;53.422;7.670;2022-07-23T08:10:30;22.30;65.50
25108;DHT22;13090;53.422;7.670;2022-07-23T08:15:34;22.30;65.80
25108;DHT22;13090;53.422;7.670;2022-07-23T08:20:36;22.60;66.90
25108;DHT22;13090;53.422;7.670;2022-07-23T08:25:40;23.30;66.20
25108;DHT22;13090;53.422;7.670;2022-07-23T08:30:45;24.00;64.70
25108;DHT22;13090;53.422;7.670;2022-07-23T08:35:49;24.70;62.80
25108;DHT22;13090;53.422;7.670;2022-07-23T08:40:54;25.20;61.80
25108;DHT22;13090;53.422;7.670;2022-07-23T08:46:00;25.60;61.10
25108;DHT22;13090;53.422;7.670;2022-07-23T08:51:04;25.90;59.90
25108;DHT22;13090;53.422;7.670;2022-07-23T08:56:09;26.00;59.30
25108;DHT22;13090;53.422;7.670;2022-07-23T09:01:14;26.20;59.80
25108;DHT22;13090;53.422;7.670;2022-07-23T09:06:17;26.90;60.60
25108;DHT22;13090;53.422;7.670;2022-07-23T09:11:19;28.10;62.00
25108;DHT22;13090;53.422;7.670;2022-07-23T09:16:26;29.40;59.70
25108;DHT22;13090;53.422;7.670;2022-07-23T09:21:30;30.60;55.50
25108;DHT22;13090;53.422;7.670;2022-07-23T09:26:35;31.40;54.00
25108;DHT22;13090;53.422;7.670;2022-07-23T09:31:51;31.50;50.90
25108;DHT22;13090;53.422;7.670;2022-07-23T09:36:56;31.20;48.20
25108;DHT22;13090;53.422;7.670;2022-07-23T09:42:13;31.20;51.00
25108;DHT22;13090;53.422;7.670;2022-07-23T09:47:18;31.30;47.30
25108;DHT22;13090;53.422;7.670;2022-07-23T09:52:27;30.80;47.40
25108;DHT22;13090;53.422;7.670;2022-07-23T09:57:35;30.20;46.70
25108;DHT22;13090;53.422;7.670;2022-07-23T10:02:39;29.30;47.90
25108;DHT22;13090;53.422;7.670;2022-07-23T10:07:43;28.70;48.40
25108;DHT22;13090;53.422;7.670;2022-07-23T10:12:54;28.20;49.30
25108;DHT22;13090;53.422;7.670;2022-07-23T10:17:58;28.20;50.10
25108;DHT22;13090;53.422;7.670;2022-07-23T10:23:07;28.30;49.60
25108;DHT22;13090;53.422;7.670;2022-07-23T10:33:48;28.30;48.50
25108;DHT22;13090;53.422;7.670;2022-07-23T10:39:03;28.30;48.20
25108;DHT22;13090;53.422;7.670;2022-07-23T10:44:08;28.30;48.70
25108;DHT22;13090;53.422;7.670;2022-07-23T10:49:27;28.40;48.60
25108;DHT22;13090;53.422;7.670;2022-07-23T10:54:31;28.30;47.70
25108;DHT22;13090;53.422;7.670;2022-07-23T11:05:12;28.70;49.50
25108;DHT22;13090;53.422;7.670;2022-07-23T11:10:33;29.40;49.10
25108;DHT22;13090;53.422;7.670;2022-07-23T11:16:11;29.60;46.50
25108;DHT22;13090;53.422;7.670;2022-07-23T11:21:51;29.30;45.90
25108;DHT22;13090;53.422;7.670;2022-07-23T11:26:59;29.20;46.70
25108;DHT22;13090;53.422;7.670;2022-07-23T11:32:05;29.10;46.40
25108;DHT22;13090;53.422;7.670;2022-07-23T11:37:11;29.10;46.80
25108;DHT22;13090;53.422;7.670;2022-07-23T11:42:18;29.20;46.10
25108;DHT22;13090;53.422;7.670;2022-07-23T11:47:23;29.00;45.00
25108;DHT22;13090;53.422;7.670;2022-07-23T11:52:28;28.70;45.20
25108;DHT22;13090;53.422;7.670;2022-07-23T11:57:33;28.40;47.40
25108;DHT22;13090;53.422;7.670;2022-07-23T12:02:36;28.10;46.30
25108;DHT22;13090;53.422;7.670;2022-07-23T12:07:41;28.00;46.40
25108;DHT22;13090;53.422;7.670;2022-07-23T12:12:46;28.00;45.90
25108;DHT22;13090;53.422;7.670;2022-07-23T12:17:50;27.80;45.80
25108;DHT22;13090;53.422;7.670;2022-07-23T12:22:57;27.70;46.10
25108;DHT22;13090;53.422;7.670;2022-07-23T12:28:07;27.80;46.10
25108;DHT22;13090;53.422;7.670;2022-07-23T12:33:12;27.90;46.10
25108;DHT22;13090;53.422;7.670;2022-07-23T12:38:20;27.90;46.10
25108;DHT22;13090;53.422;7.670;2022-07-23T12:43:25;27.90;45.70
25108;DHT22;13090;53.422;7.670;2022-07-23T12:48:29;28.00;46.50
25108;DHT22;13090;53.422;7.670;2022-07-23T12:53:38;28.10;46.40
25108;DHT22;13090;53.422;7.670;2022-07-23T12:58:43;28.20;45.50
25108;DHT22;13090;53.422;7.670;2022-07-23T13:03:56;28.30;45.90
25108;DHT22;13090;53.422;7.670;2022-07-23T13:09:03;28.30;45.10
25108;DHT22;13090;53.422;7.670;2022-07-23T13:14:07;28.30;45.00
25108;DHT22;13090;53.422;7.670;2022-07-23T13:19:10;28.20;45.40
25108;DHT22;13090;53.422;7.670;2022-07-23T13:24:16;28.10;45.20
25108;DHT22;13090;53.422;7.670;2022-07-23T13:29:19;28.00;45.40
25108;DHT22;13090;53.422;7.670;2022-07-23T13:34:23;28.10;45.30
25108;DHT22;13090;53.422;7.670;2022-07-23T13:39:27;28.10;45.10
25108;DHT22;13090;53.422;7.670;2022-07-23T13:44:30;28.00;45.30
25108;DHT22;13090;53.422;7.670;2022-07-23T13:49:32;28.10;45.70
25108;DHT22;13090;53.422;7.670;2022-07-23T13:54:37;28.30;45.00
25108;DHT22;13090;53.422;7.670;2022-07-23T13:59:41;28.20;44.40
25108;DHT22;13090;53.422;7.670;2022-07-23T14:04:44;28.10;44.30
25108;DHT22;13090;53.422;7.670;2022-07-23T14:09:48;28.00;44.70
25108;DHT22;13090;53.422;7.670;2022-07-23T14:14:51;27.90;44.80
25108;DHT22;13090;53.422;7.670;2022-07-23T14:19:54;27.80;45.00
25108;DHT22;13090;53.422;7.670;2022-07-23T14:24:58;27.80;45.00
25108;DHT22;13090;53.422;7.670;2022-07-23T14:30:04;27.80;44.80
25108;DHT22;13090;53.422;7.670;2022-07-23T14:35:07;27.80;44.70
25108;DHT22;13090;53.422;7.670;2022-07-23T14:40:13;27.80;44.60
25108;DHT22;13090;53.422;7.670;2022-07-23T14:45:16;27.70;44.80
25108;DHT22;13090;53.422;7.670;2022-07-23T14:50:20;27.60;45.00
25108;DHT22;13090;53.422;7.670;2022-07-23T14:55:24;27.60;45.10
25108;DHT22;13090;53.422;7.670;2022-07-23T15:00:27;27.60;45.10
25108;DHT22;13090;53.422;7.670;2022-07-23T15:05:31;27.70;45.60
25108;DHT22;13090;53.422;7.670;2022-07-23T15:10:35;27.70;45.70
25108;DHT22;13090;53.422;7.670;2022-07-23T15:15:39;27.90;45.40
25108;DHT22;13090;53.422;7.670;2022-07-23T15:20:41;28.00;45.40
25108;DHT22;13090;53.422;7.670;2022-07-23T15:25:45;28.00;45.20
25108;DHT22;13090;53.422;7.670;2022-07-23T15:30:52;28.00;44.90
25108;DHT22;13090;53.422;7.670;2022-07-23T15:35:55;27.90;44.80
25108;DHT22;13090;53.422;7.670;2022-07-23T15:40:59;27.80;45.10
25108;DHT22;13090;53.422;7.670;2022-07-23T15:46:02;27.70;45.30
25108;DHT22;13090;53.422;7.670;2022-07-23T15:51:10;27.70;45.30
25108;DHT22;13090;53.422;7.670;2022-07-23T15:56:14;27.60;45.40
25108;DHT22;13090;53.422;7.670;2022-07-23T16:01:18;27.50;45.50
25108;DHT22;13090;53.422;7.670;2022-07-23T16:06:20;27.50;45.80
25108;DHT22;13090;53.422;7.670;2022-07-23T16:11:24;27.50;45.70
25108;DHT22;13090;53.422;7.670;2022-07-23T16:16:27;27.60;45.60
25108;DHT22;13090;53.422;7.670;2022-07-23T16:21:29;27.60;45.60
25108;DHT22;13090;53.422;7.670;2022-07-23T16:26:33;27.60;45.50
25108;DHT22;13090;53.422;7.670;2022-07-23T16:31:36;27.50;45.60
25108;DHT22;13090;53.422;7.670;2022-07-23T16:36:39;27.40;45.70
25108;DHT22;13090;53.422;7.670;2022-07-23T16:41:43;27.30;45.80
25108;DHT22;13090;53.422;7.670;2022-07-23T16:46:46;27.20;45.80
25108;DHT22;13090;53.422;7.670;2022-07-23T16:51:48;27.20;45.90
25108;DHT22;13090;53.422;7.670;2022-07-23T16:56:53;27.10;45.90
25108;DHT22;13090;53.422;7.670;2022-07-23T17:01:55;27.10;46.00
25108;DHT22;13090;53.422;7.670;2022-07-23T17:06:58;27.10;46.10
25108;DHT22;13090;53.422;7.670;2022-07-23T17:12:03;27.00;45.80
25108;DHT22;13090;53.422;7.670;2022-07-23T17:17:06;26.90;45.80
25108;DHT22;13090;53.422;7.670;2022-07-23T17:22:08;26.80;46.00
25108;DHT22;13090;53.422;7.670;2022-07-23T17:27:12;26.60;46.10
25108;DHT22;13090;53.422;7.670;2022-07-23T17:32:15;26.50;46.20
25108;DHT22;13090;53.422;7.670;2022-07-23T17:37:18;26.40;46.40
25108;DHT22;13090;53.422;7.670;2022-07-23T17:42:23;26.20;46.40
25108;DHT22;13090;53.422;7.670;2022-07-23T17:47:25;26.20;46.70
25108;DHT22;13090;53.422;7.670;2022-07-23T17:52:28;26.10;46.90
25108;DHT22;13090;53.422;7.670;2022-07-23T17:57:32;26.00;47.00
25108;DHT22;13090;53.422;7.670;2022-07-23T18:02:35;25.80;47.10
25108;DHT22;13090;53.422;7.670;2022-07-23T18:07:38;25.70;47.30
25108;DHT22;13090;53.422;7.670;2022-07-23T18:12:46;25.60;47.50
25108;DHT22;13090;53.422;7.670;2022-07-23T18:17:50;25.50;47.40
25108;DHT22;13090;53.422;7.670;2022-07-23T18:22:53;25.40;47.80
25108;DHT22;13090;53.422;7.670;2022-07-23T18:27:57;25.30;47.80
25108;DHT22;13090;53.422;7.670;2022-07-23T18:33:00;25.10;48.10
25108;DHT22;13090;53.422;7.670;2022-07-23T18:38:08;25.00;48.20
25108;DHT22;13090;53.422;7.670;2022-07-23T18:43:14;25.00;48.50
25108;DHT22;13090;53.422;7.670;2022-07-23T18:48:17;24.80;48.80
25108;DHT22;13090;53.422;7.670;2022-07-23T18:53:20;24.70;48.90
25108;DHT22;13090;53.422;7.670;2022-07-23T18:58:24;24.60;48.90
25108;DHT22;13090;53.422;7.670;2022-07-23T19:03:26;24.50;49.20
25108;DHT22;13090;53.422;7.670;2022-07-23T19:08:29;24.30;49.90
25108;DHT22;13090;53.422;7.670;2022-07-23T19:13:33;24.10;49.60
25108;DHT22;13090;53.422;7.670;2022-07-23T19:18:35;23.90;49.80
25108;DHT22;13090;53.422;7.670;2022-07-23T19:23:38;23.80;50.10
25108;DHT22;13090;53.422;7.670;2022-07-23T19:28:42;23.60;50.20
25108;DHT22;13090;53.422;7.670;2022-07-23T19:33:45;23.40;50.60
25108;DHT22;13090;53.422;7.670;2022-07-23T19:38:47;23.20;50.70
25108;DHT22;13090;53.422;7.670;2022-07-23T19:43:53;23.00;51.10
25108;DHT22;13090;53.422;7.670;2022-07-23T19:48:55;22.70;51.50
25108;DHT22;13090;53.422;7.670;2022-07-23T19:53:58;22.50;51.90
25108;DHT22;13090;53.422;7.670;2022-07-23T19:59:02;22.30;52.30
25108;DHT22;13090;53.422;7.670;2022-07-23T20:04:05;22.10;52.80
25108;DHT22;13090;53.422;7.670;2022-07-23T20:09:08;21.80;53.30
25108;DHT22;13090;53.422;7.670;2022-07-23T20:14:12;21.50;53.40
25108;DHT22;13090;53.422;7.670;2022-07-23T20:19:15;21.20;54.20
25108;DHT22;13090;53.422;7.670;2022-07-23T20:24:17;21.00;55.20
25108;DHT22;13090;53.422;7.670;2022-07-23T20:29:22;20.70;55.50
25108;DHT22;13090;53.422;7.670;2022-07-23T20:34:26;20.40;55.80
25108;DHT22;13090;53.422;7.670;2022-07-23T20:39:29;20.30;56.00
25108;DHT22;13090;53.422;7.670;2022-07-23T20:44:32;20.10;56.70
25108;DHT22;13090;53.422;7.670;2022-07-23T20:49:35;20.00;57.50
25108;DHT22;13090;53.422;7.670;2022-07-23T20:54:38;19.80;56.80
25108;DHT22;13090;53.422;7.670;2022-07-23T20:59:42;19.80;57.20
25108;DHT22;13090;53.422;7.670;2022-07-23T21:04:45;19.70;57.60
25108;DHT22;13090;53.422;7.670;2022-07-23T21:09:49;19.60;57.40
25108;DHT22;13090;53.422;7.670;2022-07-23T21:14:56;19.60;57.80
25108;DHT22;13090;53.422;7.670;2022-07-23T21:20:00;19.50;58.10
25108;DHT22;13090;53.422;7.670;2022-07-23T21:25:04;19.40;58.00
25108;DHT22;13090;53.422;7.670;2022-07-23T21:30:14;19.30;58.50
25108;DHT22;13090;53.422;7.670;2022-07-23T21:35:16;19.10;58.70
25108;DHT22;13090;53.422;7.670;2022-07-23T21:40:19;19.00;58.80
25108;DHT22;13090;53.422;7.670;2022-07-23T21:45:23;18.80;59.70
25108;DHT22;13090;53.422;7.670;2022-07-23T21:50:25;18.60;59.80
25108;DHT22;13090;53.422;7.670;2022-07-23T21:55:28;18.50;59.80
25108;DHT22;13090;53.422;7.670;2022-07-23T22:00:33;18.30;60.10
25108;DHT22;13090;53.422;7.670;2022-07-23T22:05:36;18.20;60.70
25108;DHT22;13090;53.422;7.670;2022-07-23T22:10:38;18.10;60.60
25108;DHT22;13090;53.422;7.670;2022-07-23T22:15:44;18.00;62.10
25108;DHT22;13090;53.422;7.670;2022-07-23T22:20:47;17.90;61.90
25108;DHT22;13090;53.422;7.670;2022-07-23T22:25:53;17.80;61.60
25108;DHT22;13090;53.422;7.670;2022-07-23T22:30:57;17.80;62.10
25108;DHT22;13090;53.422;7.670;2022-07-23T22:35:59;17.70;62.50
25108;DHT22;13090;53.422;7.670;2022-07-23T22:41:02;17.60;62.50
25108;DHT22;13090;53.422;7.670;2022-07-23T22:46:06;17.60;62.70
25108;DHT22;13090;53.422;7.670;2022-07-23T22:51:08;17.50;63.00
25108;DHT22;13090;53.422;7.670;2022-07-23T22:56:14;17.40;63.50
25108;DHT22;13090;53.422;7.670;2022-07-23T23:01:18;17.30;63.70
25108;DHT22;13090;53.422;7.670;2022-07-23T23:06:20;17.20;63.80
25108;DHT22;13090;53.422;7.670;2022-07-23T23:11:23;17.20;64.10
25108;DHT22;13090;53.422;7.670;2022-07-23T23:16:26;17.10;64.00
25108;DHT22;13090;53.422;7.670;2022-07-23T23:21:29;17.00;64.40
25108;DHT22;13090;53.422;7.670;2022-07-23T23:26:32;17.00;64.40
25108;DHT22;13090;53.422;7.670;2022-07-23T23:31:36;17.00;64.30
25108;DHT22;13090;53.422;7.670;2022-07-23T23:36:38;16.90;64.90
25108;DHT22;13090;53.422;7.670;2022-07-23T23:41:41;16.90;64.90
25108;DHT22;13090;53.422;7.670;2022-07-23T23:46:44;16.80;65.50
25108;DHT22;13090;53.422;7.670;2022-07-23T23:51:47;16.80;65.90
25108;DHT22;13090;53.422;7.670;2022-07-23T23:56:49;16.70;66.20
